sensor_id;sensor_type;location;lat;lon;timestamp;P1;durP1;ratioP1;P2;durP2;ratioP2
38787;SDS011;24536;45.488;12.238;2022-11-15T00:00:50;18.80;;;14.45;;
38787;SDS011;24536;45.488;12.238;2022-11-15T00:03:17;18.95;;;14.30;;
38787;SDS011;24536;45.488;12.238;2022-11-15T00:05:44;22.90;;;14.63;;
38787;SDS011;24536;45.488;12.238;2022-11-15T00:08:10;17.95;;;13.95;;
38787;SDS011;24536;45.488;12.238;2022-11-15T00:10:37;20.58;;;15.02;;
38787;SDS011;24536;45.488;12.238;2022-11-15T00:13:06;20.60;;;16.00;;
38787;SDS011;24536;45.488;12.238;2022-11-15T00:15:36;19.48;;;15.02;;
38787;SDS011;24536;45.488;12.238;2022-11-15T00:18:03;20.88;;;14.70;;
38787;SDS011;24536;45.488;12.238;2022-11-15T00:20:30;22.95;;;15.82;;
38787;SDS011;24536;45.488;12.238;2022-11-15T00:22:56;22.90;;;15.02;;
38787;SDS011;24536;45.488;12.238;2022-11-15T00:25:21;22.40;;;16.17;;
38787;SDS011;24536;45.488;12.238;2022-11-15T00:27:47;19.90;;;15.68;;
38787;SDS011;24536;45.488;12.238;2022-11-15T00:30:13;18.52;;;15.25;;
38787;SDS011;24536;45.488;12.238;2022-11-15T00:32:38;19.95;;;14.95;;
38787;SDS011;24536;45.488;12.238;2022-11-15T00:35:04;21.95;;;15.25;;
38787;SDS011;24536;45.488;12.238;2022-11-15T00:37:30;19.58;;;15.32;;
38787;SDS011;24536;45.488;12.238;2022-11-15T00:39:55;20.88;;;15.57;;
38787;SDS011;24536;45.488;12.238;2022-11-15T00:42:21;18.75;;;15.07;;
38787;SDS011;24536;45.488;12.238;2022-11-15T00:44:47;21.83;;;15.77;;
38787;SDS011;24536;45.488;12.238;2022-11-15T00:47:12;24.70;;;15.85;;
38787;SDS011;24536;45.488;12.238;2022-11-15T00:49:38;20.48;;;16.10;;
38787;SDS011;24536;45.488;12.238;2022-11-15T00:52:04;21.83;;;17.27;;
38787;SDS011;24536;45.488;12.238;2022-11-15T00:54:29;19.67;;;15.80;;
38787;SDS011;24536;45.488;12.238;2022-11-15T00:56:55;22.58;;;16.85;;
38787;SDS011;24536;45.488;12.238;2022-11-15T00:59:21;22.83;;;17.17;;
38787;SDS011;24536;45.488;12.238;2022-11-15T01:01:47;20.10;;;15.70;;
38787;SDS011;24536;45.488;12.238;2022-11-15T01:04:13;21.13;;;16.33;;
38787;SDS011;24536;45.488;12.238;2022-11-15T01:06:39;20.30;;;15.63;;
38787;SDS011;24536;45.488;12.238;2022-11-15T01:09:05;19.70;;;15.85;;
38787;SDS011;24536;45.488;12.238;2022-11-15T01:11:30;19.58;;;16.52;;
38787;SDS011;24536;45.488;12.238;2022-11-15T01:13:56;21.48;;;16.13;;
38787;SDS011;24536;45.488;12.238;2022-11-15T01:16:21;20.23;;;15.38;;
38787;SDS011;24536;45.488;12.238;2022-11-15T01:18:47;21.00;;;15.45;;
38787;SDS011;24536;45.488;12.238;2022-11-15T01:21:14;22.02;;;16.25;;
38787;SDS011;24536;45.488;12.238;2022-11-15T01:23:42;26.83;;;16.45;;
38787;SDS011;24536;45.488;12.238;2022-11-15T01:26:09;22.98;;;16.00;;
38787;SDS011;24536;45.488;12.238;2022-11-15T01:28:38;20.42;;;16.08;;
38787;SDS011;24536;45.488;12.238;2022-11-15T01:31:06;20.40;;;15.82;;
38787;SDS011;24536;45.488;12.238;2022-11-15T01:33:36;21.80;;;16.83;;
38787;SDS011;24536;45.488;12.238;2022-11-15T01:36:05;20.52;;;15.90;;
38787;SDS011;24536;45.488;12.238;2022-11-15T01:38:33;20.38;;;15.60;;
38787;SDS011;24536;45.488;12.238;2022-11-15T01:40:59;21.30;;;16.30;;
38787;SDS011;24536;45.488;12.238;2022-11-15T01:43:26;20.73;;;16.13;;
38787;SDS011;24536;45.488;12.238;2022-11-15T01:46:02;22.75;;;16.63;;
38787;SDS011;24536;45.488;12.238;2022-11-15T01:49:04;20.13;;;16.27;;
38787;SDS011;24536;45.488;12.238;2022-11-15T01:51:36;21.08;;;16.65;;
38787;SDS011;24536;45.488;12.238;2022-11-15T01:54:07;23.15;;;17.10;;
38787;SDS011;24536;45.488;12.238;2022-11-15T01:56:41;23.52;;;17.90;;
38787;SDS011;24536;45.488;12.238;2022-11-15T01:59:11;33.35;;;21.10;;
38787;SDS011;24536;45.488;12.238;2022-11-15T02:01:37;21.92;;;16.85;;
38787;SDS011;24536;45.488;12.238;2022-11-15T02:04:24;21.95;;;17.02;;
38787;SDS011;24536;45.488;12.238;2022-11-15T02:06:53;22.15;;;17.60;;
38787;SDS011;24536;45.488;12.238;2022-11-15T02:09:19;23.02;;;18.08;;
38787;SDS011;24536;45.488;12.238;2022-11-15T02:11:45;24.20;;;18.48;;
38787;SDS011;24536;45.488;12.238;2022-11-15T02:14:12;23.75;;;17.70;;
38787;SDS011;24536;45.488;12.238;2022-11-15T02:16:54;22.45;;;17.77;;
38787;SDS011;24536;45.488;12.238;2022-11-15T02:32:54;28.77;;;20.95;;
38787;SDS011;24536;45.488;12.238;2022-11-15T02:35:26;25.55;;;18.65;;
38787;SDS011;24536;45.488;12.238;2022-11-15T02:38:00;23.02;;;17.00;;
38787;SDS011;24536;45.488;12.238;2022-11-15T02:41:19;24.55;;;18.35;;
38787;SDS011;24536;45.488;12.238;2022-11-15T02:43:32;23.05;;;16.90;;
38787;SDS011;24536;45.488;12.238;2022-11-15T02:49:18;29.30;;;22.95;;
38787;SDS011;24536;45.488;12.238;2022-11-15T02:51:45;25.13;;;19.20;;
38787;SDS011;24536;45.488;12.238;2022-11-15T02:54:15;30.10;;;22.55;;
38787;SDS011;24536;45.488;12.238;2022-11-15T02:56:47;24.17;;;18.02;;
38787;SDS011;24536;45.488;12.238;2022-11-15T02:59:40;25.17;;;19.05;;
38787;SDS011;24536;45.488;12.238;2022-11-15T03:04:57;27.08;;;19.98;;
38787;SDS011;24536;45.488;12.238;2022-11-15T03:11:07;29.88;;;20.95;;
38787;SDS011;24536;45.488;12.238;2022-11-15T03:22:02;27.80;;;19.45;;
38787;SDS011;24536;45.488;12.238;2022-11-15T03:24:31;26.27;;;19.08;;
38787;SDS011;24536;45.488;12.238;2022-11-15T03:27:00;27.30;;;20.38;;
38787;SDS011;24536;45.488;12.238;2022-11-15T03:29:32;26.60;;;18.92;;
38787;SDS011;24536;45.488;12.238;2022-11-15T03:32:03;26.02;;;19.90;;
38787;SDS011;24536;45.488;12.238;2022-11-15T03:37:22;27.55;;;20.48;;
38787;SDS011;24536;45.488;12.238;2022-11-15T03:39:54;27.63;;;20.40;;
38787;SDS011;24536;45.488;12.238;2022-11-15T03:42:22;23.77;;;18.98;;
38787;SDS011;24536;45.488;12.238;2022-11-15T03:47:38;23.77;;;19.27;;
38787;SDS011;24536;45.488;12.238;2022-11-15T03:50:16;25.38;;;19.23;;
38787;SDS011;24536;45.488;12.238;2022-11-15T03:52:44;24.92;;;19.20;;
38787;SDS011;24536;45.488;12.238;2022-11-15T03:55:13;27.88;;;19.98;;
38787;SDS011;24536;45.488;12.238;2022-11-15T03:57:41;24.00;;;18.83;;
38787;SDS011;24536;45.488;12.238;2022-11-15T04:00:07;27.95;;;19.25;;
38787;SDS011;24536;45.488;12.238;2022-11-15T04:02:34;22.70;;;17.70;;
38787;SDS011;24536;45.488;12.238;2022-11-15T04:04:59;24.48;;;18.63;;
38787;SDS011;24536;45.488;12.238;2022-11-15T04:07:25;28.90;;;20.55;;
38787;SDS011;24536;45.488;12.238;2022-11-15T04:09:51;26.92;;;19.25;;
38787;SDS011;24536;45.488;12.238;2022-11-15T04:12:30;25.42;;;19.08;;
38787;SDS011;24536;45.488;12.238;2022-11-15T04:15:01;24.08;;;18.42;;
38787;SDS011;24536;45.488;12.238;2022-11-15T04:17:33;30.40;;;22.58;;
38787;SDS011;24536;45.488;12.238;2022-11-15T04:20:04;24.00;;;19.75;;
38787;SDS011;24536;45.488;12.238;2022-11-15T04:22:51;31.38;;;22.05;;
38787;SDS011;24536;45.488;12.238;2022-11-15T04:25:36;23.98;;;18.98;;
38787;SDS011;24536;45.488;12.238;2022-11-15T04:28:02;25.58;;;19.20;;
38787;SDS011;24536;45.488;12.238;2022-11-15T04:30:28;27.05;;;20.30;;
38787;SDS011;24536;45.488;12.238;2022-11-15T04:32:53;25.63;;;18.13;;
38787;SDS011;24536;45.488;12.238;2022-11-15T04:35:19;25.35;;;17.17;;
38787;SDS011;24536;45.488;12.238;2022-11-15T04:37:45;27.10;;;21.10;;
38787;SDS011;24536;45.488;12.238;2022-11-15T04:40:11;25.20;;;19.88;;
38787;SDS011;24536;45.488;12.238;2022-11-15T04:42:36;24.65;;;17.75;;
38787;SDS011;24536;45.488;12.238;2022-11-15T04:45:02;26.35;;;20.05;;
38787;SDS011;24536;45.488;12.238;2022-11-15T04:47:28;24.27;;;18.80;;
38787;SDS011;24536;45.488;12.238;2022-11-15T04:49:54;24.70;;;18.83;;
38787;SDS011;24536;45.488;12.238;2022-11-15T04:52:20;25.60;;;18.67;;
38787;SDS011;24536;45.488;12.238;2022-11-15T04:54:45;28.88;;;22.88;;
38787;SDS011;24536;45.488;12.238;2022-11-15T04:57:11;23.55;;;18.40;;
38787;SDS011;24536;45.488;12.238;2022-11-15T04:59:37;25.90;;;19.83;;
38787;SDS011;24536;45.488;12.238;2022-11-15T05:02:02;33.05;;;24.75;;
38787;SDS011;24536;45.488;12.238;2022-11-15T05:04:28;25.02;;;18.40;;
38787;SDS011;24536;45.488;12.238;2022-11-15T05:06:53;31.05;;;22.95;;
38787;SDS011;24536;45.488;12.238;2022-11-15T05:09:19;24.52;;;18.30;;
38787;SDS011;24536;45.488;12.238;2022-11-15T05:11:45;25.70;;;18.42;;
38787;SDS011;24536;45.488;12.238;2022-11-15T05:14:11;26.30;;;18.90;;
38787;SDS011;24536;45.488;12.238;2022-11-15T05:16:37;24.40;;;16.95;;
38787;SDS011;24536;45.488;12.238;2022-11-15T05:19:03;23.75;;;18.27;;
38787;SDS011;24536;45.488;12.238;2022-11-15T05:21:30;22.23;;;17.75;;
38787;SDS011;24536;45.488;12.238;2022-11-15T05:23:56;27.20;;;19.33;;
38787;SDS011;24536;45.488;12.238;2022-11-15T05:26:22;24.95;;;19.10;;
38787;SDS011;24536;45.488;12.238;2022-11-15T05:28:51;24.27;;;17.50;;
38787;SDS011;24536;45.488;12.238;2022-11-15T05:31:19;24.40;;;18.27;;
38787;SDS011;24536;45.488;12.238;2022-11-15T05:33:45;23.50;;;17.50;;
38787;SDS011;24536;45.488;12.238;2022-11-15T05:36:18;23.33;;;18.10;;
38787;SDS011;24536;45.488;12.238;2022-11-15T05:39:10;26.05;;;18.73;;
38787;SDS011;24536;45.488;12.238;2022-11-15T05:41:46;24.27;;;17.95;;
38787;SDS011;24536;45.488;12.238;2022-11-15T05:44:16;23.08;;;18.30;;
38787;SDS011;24536;45.488;12.238;2022-11-15T05:49:13;24.38;;;17.88;;
38787;SDS011;24536;45.488;12.238;2022-11-15T05:51:41;26.42;;;18.67;;
38787;SDS011;24536;45.488;12.238;2022-11-15T05:54:09;26.05;;;19.40;;
38787;SDS011;24536;45.488;12.238;2022-11-15T05:56:35;27.05;;;19.05;;
38787;SDS011;24536;45.488;12.238;2022-11-15T05:59:01;25.20;;;17.98;;
38787;SDS011;24536;45.488;12.238;2022-11-15T06:01:27;21.90;;;17.75;;
38787;SDS011;24536;45.488;12.238;2022-11-15T06:03:54;29.38;;;21.60;;
38787;SDS011;24536;45.488;12.238;2022-11-15T06:06:19;23.45;;;17.65;;
38787;SDS011;24536;45.488;12.238;2022-11-15T06:08:45;22.00;;;17.70;;
38787;SDS011;24536;45.488;12.238;2022-11-15T06:11:12;23.40;;;17.38;;
38787;SDS011;24536;45.488;12.238;2022-11-15T06:13:38;27.00;;;18.70;;
38787;SDS011;24536;45.488;12.238;2022-11-15T06:16:04;28.40;;;18.13;;
38787;SDS011;24536;45.488;12.238;2022-11-15T06:18:34;24.25;;;17.88;;
38787;SDS011;24536;45.488;12.238;2022-11-15T06:21:00;24.13;;;17.73;;
38787;SDS011;24536;45.488;12.238;2022-11-15T06:23:26;24.35;;;17.45;;
38787;SDS011;24536;45.488;12.238;2022-11-15T06:25:57;24.73;;;18.23;;
38787;SDS011;24536;45.488;12.238;2022-11-15T06:28:36;23.33;;;16.48;;
38787;SDS011;24536;45.488;12.238;2022-11-15T06:31:03;25.55;;;17.75;;
38787;SDS011;24536;45.488;12.238;2022-11-15T06:33:32;23.52;;;16.92;;
38787;SDS011;24536;45.488;12.238;2022-11-15T06:36:03;21.10;;;15.15;;
38787;SDS011;24536;45.488;12.238;2022-11-15T06:38:30;21.50;;;15.00;;
38787;SDS011;24536;45.488;12.238;2022-11-15T06:41:03;19.40;;;15.73;;
38787;SDS011;24536;45.488;12.238;2022-11-15T06:43:30;20.55;;;14.90;;
38787;SDS011;24536;45.488;12.238;2022-11-15T06:46:00;20.02;;;15.00;;
38787;SDS011;24536;45.488;12.238;2022-11-15T06:48:27;22.75;;;15.93;;
38787;SDS011;24536;45.488;12.238;2022-11-15T06:50:53;21.42;;;15.13;;
38787;SDS011;24536;45.488;12.238;2022-11-15T06:53:21;17.55;;;14.02;;
38787;SDS011;24536;45.488;12.238;2022-11-15T06:55:47;17.38;;;13.38;;
38787;SDS011;24536;45.488;12.238;2022-11-15T06:58:12;15.55;;;12.55;;
38787;SDS011;24536;45.488;12.238;2022-11-15T07:00:38;17.08;;;11.88;;
38787;SDS011;24536;45.488;12.238;2022-11-15T07:03:05;16.13;;;13.05;;
38787;SDS011;24536;45.488;12.238;2022-11-15T07:05:31;18.73;;;14.63;;
38787;SDS011;24536;45.488;12.238;2022-11-15T07:07:58;19.13;;;13.45;;
38787;SDS011;24536;45.488;12.238;2022-11-15T07:10:24;15.07;;;12.27;;
38787;SDS011;24536;45.488;12.238;2022-11-15T07:12:50;36.17;;;16.98;;
38787;SDS011;24536;45.488;12.238;2022-11-15T07:15:17;16.15;;;12.75;;
38787;SDS011;24536;45.488;12.238;2022-11-15T07:17:44;44.75;;;17.00;;
38787;SDS011;24536;45.488;12.238;2022-11-15T07:20:10;14.57;;;11.82;;
38787;SDS011;24536;45.488;12.238;2022-11-15T07:22:38;14.45;;;11.63;;
38787;SDS011;24536;45.488;12.238;2022-11-15T07:25:04;17.13;;;13.02;;
38787;SDS011;24536;45.488;12.238;2022-11-15T07:27:30;19.75;;;13.48;;
38787;SDS011;24536;45.488;12.238;2022-11-15T07:29:56;18.77;;;13.20;;
38787;SDS011;24536;45.488;12.238;2022-11-15T07:32:22;25.20;;;14.70;;
38787;SDS011;24536;45.488;12.238;2022-11-15T07:34:47;34.97;;;19.48;;
38787;SDS011;24536;45.488;12.238;2022-11-15T07:37:13;19.80;;;13.98;;
38787;SDS011;24536;45.488;12.238;2022-11-15T07:39:39;23.48;;;14.80;;
38787;SDS011;24536;45.488;12.238;2022-11-15T07:42:05;24.15;;;15.40;;
38787;SDS011;24536;45.488;12.238;2022-11-15T07:44:49;20.83;;;14.80;;
38787;SDS011;24536;45.488;12.238;2022-11-15T07:47:15;20.88;;;14.13;;
38787;SDS011;24536;45.488;12.238;2022-11-15T07:49:41;21.35;;;14.50;;
38787;SDS011;24536;45.488;12.238;2022-11-15T07:52:08;22.75;;;14.77;;
38787;SDS011;24536;45.488;12.238;2022-11-15T07:54:35;18.40;;;12.27;;
38787;SDS011;24536;45.488;12.238;2022-11-15T07:57:01;17.83;;;12.50;;
38787;SDS011;24536;45.488;12.238;2022-11-15T07:59:27;18.23;;;12.82;;
38787;SDS011;24536;45.488;12.238;2022-11-15T08:01:53;17.00;;;12.43;;
38787;SDS011;24536;45.488;12.238;2022-11-15T08:04:19;22.40;;;13.35;;
38787;SDS011;24536;45.488;12.238;2022-11-15T08:06:45;20.05;;;14.25;;
38787;SDS011;24536;45.488;12.238;2022-11-15T08:09:11;14.88;;;11.45;;
38787;SDS011;24536;45.488;12.238;2022-11-15T08:11:36;18.33;;;12.15;;
38787;SDS011;24536;45.488;12.238;2022-11-15T08:14:02;15.13;;;11.55;;
38787;SDS011;24536;45.488;12.238;2022-11-15T08:16:28;15.02;;;11.95;;
38787;SDS011;24536;45.488;12.238;2022-11-15T08:18:54;20.70;;;14.57;;
38787;SDS011;24536;45.488;12.238;2022-11-15T08:21:20;27.38;;;14.23;;
38787;SDS011;24536;45.488;12.238;2022-11-15T08:23:46;20.15;;;13.60;;
38787;SDS011;24536;45.488;12.238;2022-11-15T08:26:12;24.02;;;15.02;;
38787;SDS011;24536;45.488;12.238;2022-11-15T08:28:38;21.52;;;15.45;;
38787;SDS011;24536;45.488;12.238;2022-11-15T08:31:04;21.83;;;14.45;;
38787;SDS011;24536;45.488;12.238;2022-11-15T08:33:30;20.77;;;15.40;;
38787;SDS011;24536;45.488;12.238;2022-11-15T08:35:58;20.85;;;15.63;;
38787;SDS011;24536;45.488;12.238;2022-11-15T08:38:25;21.25;;;15.05;;
38787;SDS011;24536;45.488;12.238;2022-11-15T08:40:53;28.58;;;17.80;;
38787;SDS011;24536;45.488;12.238;2022-11-15T08:43:27;27.65;;;19.23;;
38787;SDS011;24536;45.488;12.238;2022-11-15T08:45:57;20.13;;;15.70;;
38787;SDS011;24536;45.488;12.238;2022-11-15T08:48:24;18.65;;;13.57;;
38787;SDS011;24536;45.488;12.238;2022-11-15T08:50:53;14.65;;;11.90;;
38787;SDS011;24536;45.488;12.238;2022-11-15T08:53:20;14.45;;;11.23;;
38787;SDS011;24536;45.488;12.238;2022-11-15T08:55:45;15.50;;;12.00;;
38787;SDS011;24536;45.488;12.238;2022-11-15T08:58:11;12.93;;;10.52;;
38787;SDS011;24536;45.488;12.238;2022-11-15T09:00:37;18.50;;;10.68;;
38787;SDS011;24536;45.488;12.238;2022-11-15T09:03:04;16.00;;;11.07;;
38787;SDS011;24536;45.488;12.238;2022-11-15T09:05:30;13.10;;;10.63;;
38787;SDS011;24536;45.488;12.238;2022-11-15T09:07:56;13.48;;;10.85;;
38787;SDS011;24536;45.488;12.238;2022-11-15T09:10:22;12.73;;;10.52;;
38787;SDS011;24536;45.488;12.238;2022-11-15T09:12:48;13.20;;;11.20;;
38787;SDS011;24536;45.488;12.238;2022-11-15T09:15:14;14.18;;;11.23;;
38787;SDS011;24536;45.488;12.238;2022-11-15T09:17:42;14.35;;;11.40;;
38787;SDS011;24536;45.488;12.238;2022-11-15T09:20:10;14.43;;;10.75;;
38787;SDS011;24536;45.488;12.238;2022-11-15T09:22:36;14.27;;;11.88;;
38787;SDS011;24536;45.488;12.238;2022-11-15T09:25:04;13.27;;;11.75;;
38787;SDS011;24536;45.488;12.238;2022-11-15T09:27:30;12.18;;;9.82;;
38787;SDS011;24536;45.488;12.238;2022-11-15T09:29:57;12.32;;;10.48;;
38787;SDS011;24536;45.488;12.238;2022-11-15T09:32:23;12.90;;;10.98;;
38787;SDS011;24536;45.488;12.238;2022-11-15T09:34:49;13.20;;;11.07;;
38787;SDS011;24536;45.488;12.238;2022-11-15T09:37:15;12.73;;;10.35;;
38787;SDS011;24536;45.488;12.238;2022-11-15T09:39:41;12.95;;;9.85;;
38787;SDS011;24536;45.488;12.238;2022-11-15T09:45:03;17.50;;;13.27;;
38787;SDS011;24536;45.488;12.238;2022-11-15T09:50:31;16.48;;;11.82;;
38787;SDS011;24536;45.488;12.238;2022-11-15T09:52:57;13.85;;;11.38;;
38787;SDS011;24536;45.488;12.238;2022-11-15T09:55:27;16.10;;;13.50;;
38787;SDS011;24536;45.488;12.238;2022-11-15T10:00:54;14.93;;;12.05;;
38787;SDS011;24536;45.488;12.238;2022-11-15T10:03:27;15.05;;;11.75;;
38787;SDS011;24536;45.488;12.238;2022-11-15T10:06:02;17.95;;;12.15;;
38787;SDS011;24536;45.488;12.238;2022-11-15T10:11:29;13.52;;;11.27;;
38787;SDS011;24536;45.488;12.238;2022-11-15T10:13:58;15.45;;;11.90;;
38787;SDS011;24536;45.488;12.238;2022-11-15T10:16:31;16.42;;;13.60;;
38787;SDS011;24536;45.488;12.238;2022-11-15T10:24:42;17.50;;;13.30;;
38787;SDS011;24536;45.488;12.238;2022-11-15T10:27:15;16.42;;;12.70;;
38787;SDS011;24536;45.488;12.238;2022-11-15T10:29:47;18.30;;;14.25;;
38787;SDS011;24536;45.488;12.238;2022-11-15T10:32:15;17.48;;;13.35;;
38787;SDS011;24536;45.488;12.238;2022-11-15T10:34:42;16.33;;;12.43;;
38787;SDS011;24536;45.488;12.238;2022-11-15T10:37:09;16.48;;;13.23;;
38787;SDS011;24536;45.488;12.238;2022-11-15T10:39:34;15.65;;;13.13;;
38787;SDS011;24536;45.488;12.238;2022-11-15T10:44:51;17.83;;;13.35;;
38787;SDS011;24536;45.488;12.238;2022-11-15T10:47:26;21.98;;;16.63;;
38787;SDS011;24536;45.488;12.238;2022-11-15T10:52:53;15.13;;;12.18;;
38787;SDS011;24536;45.488;12.238;2022-11-15T11:00:46;18.60;;;13.18;;
38787;SDS011;24536;45.488;12.238;2022-11-15T11:03:29;15.65;;;12.98;;
38787;SDS011;24536;45.488;12.238;2022-11-15T11:09:01;16.92;;;13.30;;
38787;SDS011;24536;45.488;12.238;2022-11-15T11:11:50;19.88;;;14.73;;
38787;SDS011;24536;45.488;12.238;2022-11-15T11:14:20;19.30;;;14.32;;
38787;SDS011;24536;45.488;12.238;2022-11-15T11:16:54;23.35;;;15.02;;
38787;SDS011;24536;45.488;12.238;2022-11-15T11:27:40;20.02;;;15.30;;
38787;SDS011;24536;45.488;12.238;2022-11-15T11:32:59;22.08;;;15.05;;
38787;SDS011;24536;45.488;12.238;2022-11-15T11:38:19;18.90;;;14.98;;
38787;SDS011;24536;45.488;12.238;2022-11-15T11:54:36;23.15;;;17.67;;
38787;SDS011;24536;45.488;12.238;2022-11-15T11:57:15;24.13;;;17.38;;
38787;SDS011;24536;45.488;12.238;2022-11-15T11:59:59;21.42;;;16.77;;
38787;SDS011;24536;45.488;12.238;2022-11-15T12:02:48;28.80;;;20.23;;
38787;SDS011;24536;45.488;12.238;2022-11-15T12:05:40;22.52;;;16.75;;
38787;SDS011;24536;45.488;12.238;2022-11-15T12:13:57;19.75;;;16.13;;
38787;SDS011;24536;45.488;12.238;2022-11-15T12:16:27;19.10;;;15.40;;
38787;SDS011;24536;45.488;12.238;2022-11-15T12:29:50;23.75;;;17.42;;
38787;SDS011;24536;45.488;12.238;2022-11-15T12:32:25;24.48;;;16.55;;
38787;SDS011;24536;45.488;12.238;2022-11-15T12:34:54;19.90;;;15.05;;
38787;SDS011;24536;45.488;12.238;2022-11-15T12:40:20;20.00;;;16.48;;
38787;SDS011;24536;45.488;12.238;2022-11-15T12:45:26;21.33;;;16.83;;
38787;SDS011;24536;45.488;12.238;2022-11-15T13:01:14;19.85;;;16.38;;
38787;SDS011;24536;45.488;12.238;2022-11-15T13:06:45;23.52;;;17.92;;
38787;SDS011;24536;45.488;12.238;2022-11-15T13:12:09;24.38;;;18.50;;
38787;SDS011;24536;45.488;12.238;2022-11-15T13:14:44;25.30;;;18.77;;
38787;SDS011;24536;45.488;12.238;2022-11-15T13:17:25;27.52;;;20.85;;
38787;SDS011;24536;45.488;12.238;2022-11-15T13:22:41;27.10;;;20.52;;
38787;SDS011;24536;45.488;12.238;2022-11-15T13:25:27;26.40;;;20.48;;
38787;SDS011;24536;45.488;12.238;2022-11-15T14:11:19;22.10;;;18.02;;
38787;SDS011;24536;45.488;12.238;2022-11-15T14:16:51;21.80;;;17.85;;
38787;SDS011;24536;45.488;12.238;2022-11-15T14:35:56;21.65;;;17.95;;
38787;SDS011;24536;45.488;12.238;2022-11-15T14:38:27;22.50;;;17.95;;
38787;SDS011;24536;45.488;12.238;2022-11-15T14:40:53;26.65;;;20.45;;
38787;SDS011;24536;45.488;12.238;2022-11-15T14:43:20;24.30;;;18.88;;
38787;SDS011;24536;45.488;12.238;2022-11-15T14:45:46;25.45;;;19.70;;
38787;SDS011;24536;45.488;12.238;2022-11-15T14:48:12;23.83;;;18.58;;
38787;SDS011;24536;45.488;12.238;2022-11-15T14:50:38;24.20;;;19.33;;
38787;SDS011;24536;45.488;12.238;2022-11-15T14:53:04;26.88;;;19.80;;
38787;SDS011;24536;45.488;12.238;2022-11-15T14:55:31;26.85;;;19.60;;
38787;SDS011;24536;45.488;12.238;2022-11-15T14:58:00;25.40;;;19.30;;
38787;SDS011;24536;45.488;12.238;2022-11-15T15:00:28;32.33;;;22.23;;
38787;SDS011;24536;45.488;12.238;2022-11-15T15:02:55;28.95;;;20.88;;
38787;SDS011;24536;45.488;12.238;2022-11-15T15:05:25;26.45;;;19.70;;
38787;SDS011;24536;45.488;12.238;2022-11-15T15:07:58;27.08;;;20.65;;
38787;SDS011;24536;45.488;12.238;2022-11-15T15:10:25;25.30;;;19.98;;
38787;SDS011;24536;45.488;12.238;2022-11-15T15:12:56;27.27;;;20.65;;
38787;SDS011;24536;45.488;12.238;2022-11-15T15:15:23;25.55;;;19.73;;
38787;SDS011;24536;45.488;12.238;2022-11-15T15:17:51;27.52;;;21.35;;
38787;SDS011;24536;45.488;12.238;2022-11-15T15:20:17;28.08;;;21.73;;
38787;SDS011;24536;45.488;12.238;2022-11-15T15:22:43;28.73;;;22.08;;
38787;SDS011;24536;45.488;12.238;2022-11-15T15:27:52;28.60;;;21.60;;
38787;SDS011;24536;45.488;12.238;2022-11-15T15:30:19;27.92;;;21.20;;
38787;SDS011;24536;45.488;12.238;2022-11-15T15:32:45;28.50;;;22.45;;
38787;SDS011;24536;45.488;12.238;2022-11-15T15:35:12;28.38;;;22.17;;
38787;SDS011;24536;45.488;12.238;2022-11-15T15:37:38;29.17;;;21.63;;
38787;SDS011;24536;45.488;12.238;2022-11-15T15:42:45;26.92;;;21.08;;
38787;SDS011;24536;45.488;12.238;2022-11-15T15:45:12;30.95;;;22.75;;
38787;SDS011;24536;45.488;12.238;2022-11-15T15:47:41;29.70;;;21.88;;
38787;SDS011;24536;45.488;12.238;2022-11-15T15:50:12;28.58;;;22.08;;
38787;SDS011;24536;45.488;12.238;2022-11-15T15:52:40;30.77;;;22.10;;
38787;SDS011;24536;45.488;12.238;2022-11-15T15:55:06;29.85;;;21.50;;
38787;SDS011;24536;45.488;12.238;2022-11-15T15:57:32;25.83;;;20.90;;
38787;SDS011;24536;45.488;12.238;2022-11-15T15:59:57;33.83;;;25.00;;
38787;SDS011;24536;45.488;12.238;2022-11-15T16:02:23;34.28;;;24.83;;
38787;SDS011;24536;45.488;12.238;2022-11-15T16:04:49;36.10;;;23.63;;
38787;SDS011;24536;45.488;12.238;2022-11-15T16:07:20;31.60;;;23.75;;
38787;SDS011;24536;45.488;12.238;2022-11-15T16:09:49;33.55;;;23.85;;
38787;SDS011;24536;45.488;12.238;2022-11-15T16:12:31;34.30;;;23.58;;
38787;SDS011;24536;45.488;12.238;2022-11-15T16:14:59;36.17;;;24.17;;
38787;SDS011;24536;45.488;12.238;2022-11-15T16:17:35;39.05;;;24.63;;
38787;SDS011;24536;45.488;12.238;2022-11-15T16:20:05;36.67;;;23.90;;
38787;SDS011;24536;45.488;12.238;2022-11-15T16:22:30;37.75;;;23.02;;
38787;SDS011;24536;45.488;12.238;2022-11-15T16:24:56;35.45;;;23.90;;
38787;SDS011;24536;45.488;12.238;2022-11-15T16:27:22;41.92;;;26.30;;
38787;SDS011;24536;45.488;12.238;2022-11-15T16:30:20;37.08;;;24.38;;
38787;SDS011;24536;45.488;12.238;2022-11-15T16:34:11;38.95;;;25.88;;
38787;SDS011;24536;45.488;12.238;2022-11-15T16:36:37;38.65;;;24.83;;
38787;SDS011;24536;45.488;12.238;2022-11-15T16:39:03;34.92;;;23.63;;
38787;SDS011;24536;45.488;12.238;2022-11-15T16:41:29;37.05;;;23.50;;
38787;SDS011;24536;45.488;12.238;2022-11-15T16:43:55;40.72;;;26.17;;
38787;SDS011;24536;45.488;12.238;2022-11-15T16:48:48;42.53;;;25.40;;
38787;SDS011;24536;45.488;12.238;2022-11-15T16:51:15;33.97;;;24.00;;
38787;SDS011;24536;45.488;12.238;2022-11-15T16:53:41;32.80;;;24.05;;
38787;SDS011;24536;45.488;12.238;2022-11-15T16:56:13;34.80;;;24.45;;
38787;SDS011;24536;45.488;12.238;2022-11-15T16:58:41;33.13;;;23.90;;
38787;SDS011;24536;45.488;12.238;2022-11-15T17:01:10;41.40;;;25.13;;
38787;SDS011;24536;45.488;12.238;2022-11-15T17:06:12;33.60;;;22.83;;
38787;SDS011;24536;45.488;12.238;2022-11-15T17:08:40;34.33;;;24.45;;
38787;SDS011;24536;45.488;12.238;2022-11-15T17:11:06;36.67;;;23.90;;
38787;SDS011;24536;45.488;12.238;2022-11-15T17:13:32;33.63;;;23.17;;
38787;SDS011;24536;45.488;12.238;2022-11-15T17:16:08;33.13;;;23.25;;
38787;SDS011;24536;45.488;12.238;2022-11-15T17:18:36;36.00;;;24.83;;
38787;SDS011;24536;45.488;12.238;2022-11-15T17:21:03;37.70;;;25.80;;
38787;SDS011;24536;45.488;12.238;2022-11-15T17:23:30;35.70;;;25.83;;
38787;SDS011;24536;45.488;12.238;2022-11-15T17:25:57;38.97;;;27.42;;
38787;SDS011;24536;45.488;12.238;2022-11-15T17:28:24;36.95;;;25.25;;
38787;SDS011;24536;45.488;12.238;2022-11-15T17:30:50;38.65;;;25.38;;
38787;SDS011;24536;45.488;12.238;2022-11-15T17:33:16;33.38;;;23.85;;
38787;SDS011;24536;45.488;12.238;2022-11-15T17:35:42;36.05;;;25.23;;
38787;SDS011;24536;45.488;12.238;2022-11-15T17:38:07;36.90;;;24.83;;
38787;SDS011;24536;45.488;12.238;2022-11-15T17:40:33;34.80;;;25.02;;
38787;SDS011;24536;45.488;12.238;2022-11-15T17:42:59;34.40;;;24.30;;
38787;SDS011;24536;45.488;12.238;2022-11-15T17:45:24;32.70;;;23.88;;
38787;SDS011;24536;45.488;12.238;2022-11-15T17:47:50;31.48;;;22.52;;
38787;SDS011;24536;45.488;12.238;2022-11-15T17:50:17;31.17;;;23.27;;
38787;SDS011;24536;45.488;12.238;2022-11-15T17:52:43;34.88;;;24.30;;
38787;SDS011;24536;45.488;12.238;2022-11-15T17:55:08;31.42;;;22.70;;